UUOB

Belgorod International Airport

Belgorod, Russian Federation
TAF UUOB 182300Z 1900/1909 07005MPS 5000 BR BKN011
Issued Valid From Valid To
Dec-18 @ 23:00 UTC
(an hour ago)
Dec-19 @ 00:00 UTC
(12 minutes ago)
Dec-19 @ 09:00 UTC
(in 9 hours)
Dec-19 @ 00:00 to Dec-19 @ 09:00
TAF UUOB 182300Z 1900/1909 07005MPS 5000 BR BKN011
Wind Visibility Clouds Conditions
70° at 10 knots 5,005 meters
  • Broken at 1,100' AGL
  • Mist
TAF UUOB 182300Z 1900/1909 07005MPS 5000 BR BKN011
Issued Dec-18 @ 23:00 UTC
(an hour ago)
Valid From Dec-19 @ 00:00 UTC
(12 minutes ago)
Valid To Dec-19 @ 09:00 UTC
(in 9 hours)
Dec-19 @ 00:00 - Dec-19 @ 09:00
Wind Visibility
70° at 10 knots 5,005 meters
Clouds
  • Broken at 1,100' AGL
Conditions
  • Mist